Time;durP1;ratioP1;P1;durP2;ratioP2;P2;SDS_P1;SDS_P2;PMS_P1;PMS_P2;Temp;Humidity;BMP_temperature;BMP_pressure;BME280_temperature;BME280_humidity;BME280_pressure;Samples;Min_cycle;Max_cycle;Signal;HPM_P1;HPM_P2
2022/07/20 00:00:27;;;;;;;;;;;21.90;89.10;;;;;;5033600;28;19921;-72
2022/07/20 00:02:54;;;;;;;;;;;21.80;89.30;;;;;;5034655;28;19928;-71
2022/07/20 00:05:22;;;;;;;;;;;21.70;89.50;;;;;;5034712;28;19944;-72
2022/07/20 00:07:49;;;;;;;;;;;21.70;89.60;;;;;;5016381;28;19936;-71
2022/07/20 00:13:03;;;;;;;;;;;21.70;89.40;;;;;;5034521;28;20281;-72
2022/07/20 00:15:30;;;;;;;;;;;21.70;89.00;;;;;;5016338;28;20265;-72
2022/07/20 00:17:58;;;;;;;;;;;21.70;89.60;;;;;;5037442;28;19921;-71
2022/07/20 00:20:25;;;;;;;;;;;21.70;89.20;;;;;;5020087;28;19929;-72
2022/07/20 00:22:53;;;;;;;;;;;21.60;89.50;;;;;;5038022;28;19928;-72
2022/07/20 00:25:20;;;;;;;;;;;21.60;89.50;;;;;;5004751;28;19929;-72
2022/07/20 00:27:47;;;;;;;;;;;21.50;90.00;;;;;;5019746;28;19921;-72
2022/07/20 00:30:15;;;;;;;;;;;21.50;89.60;;;;;;5038125;28;19921;-71
2022/07/20 00:32:42;;;;;;;;;;;21.50;90.00;;;;;;5037911;28;20359;-71
2022/07/20 00:35:11;;;;;;;;;;;21.40;90.40;;;;;;5036796;28;19932;-72
2022/07/20 00:37:39;;;;;;;;;;;21.40;90.10;;;;;;5037752;28;19921;-72
2022/07/20 00:40:07;;;;;;;;;;;21.40;90.10;;;;;;5037702;28;19921;-72
2022/07/20 00:42:36;;;;;;;;;;;21.40;90.00;;;;;;5036737;28;20355;-72
2022/07/20 00:45:04;;;;;;;;;;;21.40;90.00;;;;;;5037627;28;20359;-72
2022/07/20 00:47:32;;;;;;;;;;;21.50;89.60;;;;;;5036833;28;19928;-72
2022/07/20 00:49:59;;;;;;;;;;;21.40;89.20;;;;;;5037942;28;19925;-72
2022/07/20 00:52:27;;;;;;;;;;;21.50;89.10;;;;;;5037853;28;19921;-71
2022/07/20 00:54:54;;;;;;;;;;;21.50;88.70;;;;;;5019303;28;19921;-71
2022/07/20 00:57:22;;;;;;;;;;;21.50;88.50;;;;;;5020300;28;19921;-71
2022/07/20 00:59:49;;;;;;;;;;;21.50;88.10;;;;;;5020233;28;19921;-72
2022/07/20 01:02:18;;;;;;;;;;;21.50;87.80;;;;;;5036478;28;19928;-71
2022/07/20 01:04:45;;;;;;;;;;;21.50;87.40;;;;;;5037435;28;19928;-71
2022/07/20 01:07:13;;;;;;;;;;;21.40;87.20;;;;;;5036254;28;19921;-71
2022/07/20 01:09:41;;;;;;;;;;;21.40;87.30;;;;;;5037126;28;19928;-71
2022/07/20 01:12:09;;;;;;;;;;;21.40;87.30;;;;;;5037300;28;19921;-72
2022/07/20 01:14:37;;;;;;;;;;;21.30;87.40;;;;;;5036209;28;19921;-72
2022/07/20 01:17:04;;;;;;;;;;;21.30;87.60;;;;;;5037132;28;19921;-72
2022/07/20 01:19:32;;;;;;;;;;;21.30;87.50;;;;;;5036973;28;19921;-71
2022/07/20 01:22:00;;;;;;;;;;;21.40;87.40;;;;;;5036041;28;20348;-71
2022/07/20 01:24:27;;;;;;;;;;;21.30;87.60;;;;;;5019782;28;19921;-71
2022/07/20 01:26:55;;;;;;;;;;;21.30;87.60;;;;;;5036824;28;19921;-72
2022/07/20 01:29:22;;;;;;;;;;;21.30;88.00;;;;;;5017846;28;19936;-71
2022/07/20 01:31:50;;;;;;;;;;;21.30;87.80;;;;;;5019638;28;19932;-71
2022/07/20 01:34:19;;;;;;;;;;;21.20;88.00;;;;;;5018437;28;19932;-71
2022/07/20 01:36:46;;;;;;;;;;;21.20;88.10;;;;;;5036515;28;19921;-72
2022/07/20 01:39:14;;;;;;;;;;;21.20;88.00;;;;;;5036649;28;20248;-71
2022/07/20 01:41:41;;;;;;;;;;;21.20;88.30;;;;;;5035764;28;19988;-71
2022/07/20 01:44:09;;;;;;;;;;;21.20;88.40;;;;;;5036717;28;19928;-71
2022/07/20 01:46:36;;;;;;;;;;;21.20;89.00;;;;;;5036516;28;19928;-71
2022/07/20 01:49:03;;;;;;;;;;;21.20;88.70;;;;;;5035354;28;19921;-73
2022/07/20 01:51:31;;;;;;;;;;;21.10;88.90;;;;;;5036394;28;19921;-71
2022/07/20 01:53:58;;;;;;;;;;;21.10;89.10;;;;;;5035411;28;20287;-72
2022/07/20 01:56:26;;;;;;;;;;;21.10;88.80;;;;;;5036574;28;19928;-71
2022/07/20 01:58:53;;;;;;;;;;;21.10;89.20;;;;;;5019335;28;19920;-71
2022/07/20 02:01:21;;;;;;;;;;;21.10;89.40;;;;;;5018122;28;19928;-71
2022/07/20 02:03:49;;;;;;;;;;;21.10;89.60;;;;;;5003005;28;20272;-71
2022/07/20 02:06:16;;;;;;;;;;;21.10;89.40;;;;;;5036219;28;19921;-72
2022/07/20 02:08:44;;;;;;;;;;;21.10;89.50;;;;;;5034983;28;20355;-72
2022/07/20 02:11:12;;;;;;;;;;;21.10;90.10;;;;;;5036106;28;20343;-71
2022/07/20 02:13:39;;;;;;;;;;;21.10;90.00;;;;;;5035036;28;19921;-71
2022/07/20 02:16:16;;;;;;;;;;;21.00;90.10;;;;;;5036322;28;19928;-71
2022/07/20 02:18:43;;;;;;;;;;;21.00;90.30;;;;;;5018789;28;19921;-72
2022/07/20 02:21:11;;;;;;;;;;;20.90;90.40;;;;;;5018024;28;19925;-71
2022/07/20 02:23:39;;;;;;;;;;;20.90;90.60;;;;;;5036251;28;19921;-71
2022/07/20 02:26:06;;;;;;;;;;;20.90;90.60;;;;;;5035831;28;20293;-72
2022/07/20 02:28:34;;;;;;;;;;;20.80;90.70;;;;;;5034626;28;19921;-71
2022/07/20 02:31:02;;;;;;;;;;;20.80;90.80;;;;;;5018729;28;19928;-72
2022/07/20 02:33:30;;;;;;;;;;;20.70;91.00;;;;;;5036105;28;19925;-71
2022/07/20 02:35:57;;;;;;;;;;;20.70;91.10;;;;;;5034568;28;19928;-72
2022/07/20 02:38:25;;;;;;;;;;;20.70;91.00;;;;;;5035360;28;19921;-71
2022/07/20 02:40:52;;;;;;;;;;;20.60;91.40;;;;;;5034349;28;19921;-72
2022/07/20 02:43:20;;;;;;;;;;;20.60;91.50;;;;;;5035486;28;19928;-72
2022/07/20 02:45:48;;;;;;;;;;;20.60;91.50;;;;;;5017983;28;19928;-71
2022/07/20 02:48:15;;;;;;;;;;;20.60;91.50;;;;;;5017269;28;19928;-72
2022/07/20 02:50:43;;;;;;;;;;;20.60;91.40;;;;;;5035409;28;20374;-71
2022/07/20 02:53:12;;;;;;;;;;;20.70;91.50;;;;;;5035567;28;19921;-71
2022/07/20 02:55:40;;;;;;;;;;;20.60;91.40;;;;;;5000668;28;19921;-72
2022/07/20 02:58:08;;;;;;;;;;;20.60;91.40;;;;;;5017939;28;20351;-72
2022/07/20 03:00:35;;;;;;;;;;;20.60;91.60;;;;;;5000539;28;20290;-71
2022/07/20 03:03:04;;;;;;;;;;;20.50;91.70;;;;;;5035292;28;19928;-72
2022/07/20 03:05:31;;;;;;;;;;;20.50;91.60;;;;;;5018274;28;19992;-72
2022/07/20 03:07:59;;;;;;;;;;;20.50;91.70;;;;;;5033967;28;19921;-72
2022/07/20 03:10:27;;;;;;;;;;;20.50;91.80;;;;;;5035276;28;20348;-72
2022/07/20 03:12:54;;;;;;;;;;;20.50;92.10;;;;;;5001263;28;19921;-71
2022/07/20 03:15:21;;;;;;;;;;;20.40;92.00;;;;;;5034068;28;19931;-71
2022/07/20 03:17:51;;;;;;;;;;;20.40;92.30;;;;;;5035125;28;19932;-71
2022/07/20 03:20:26;;;;;;;;;;;20.40;92.50;;;;;;5034135;28;19921;-71
2022/07/20 03:22:54;;;;;;;;;;;20.40;92.50;;;;;;5035232;28;19921;-71
2022/07/20 03:25:21;;;;;;;;;;;20.40;92.60;;;;;;5018040;28;19925;-71
2022/07/20 03:27:51;;;;;;;;;;;20.40;92.60;;;;;;5033997;28;19925;-72
2022/07/20 03:30:19;;;;;;;;;;;20.40;92.60;;;;;;5035487;28;19921;-71
2022/07/20 03:32:46;;;;;;;;;;;20.40;92.50;;;;;;5034867;28;19928;-71
2022/07/20 03:35:14;;;;;;;;;;;20.40;92.50;;;;;;5016620;28;19921;-71
2022/07/20 03:37:41;;;;;;;;;;;20.40;92.70;;;;;;5034782;28;19925;-72
2022/07/20 03:40:09;;;;;;;;;;;20.40;92.80;;;;;;5017537;28;19928;-71
2022/07/20 03:42:37;;;;;;;;;;;20.50;92.80;;;;;;5033783;28;19921;-71
2022/07/20 03:45:05;;;;;;;;;;;20.40;93.00;;;;;;5035227;28;19920;-71
2022/07/20 03:47:33;;;;;;;;;;;20.40;92.90;;;;;;5033598;28;19928;-71
2022/07/20 03:50:01;;;;;;;;;;;20.40;93.00;;;;;;5035080;28;19925;-71
2022/07/20 03:52:28;;;;;;;;;;;20.40;93.10;;;;;;5019340;28;19932;-71
2022/07/20 03:54:56;;;;;;;;;;;20.40;93.20;;;;;;5037506;28;19921;-71
2022/07/20 03:57:24;;;;;;;;;;;20.40;93.10;;;;;;5038661;28;19921;-71
2022/07/20 03:59:51;;;;;;;;;;;20.40;93.30;;;;;;5038487;28;19992;-72
2022/07/20 04:02:19;;;;;;;;;;;20.00;93.10;;;;;;5037594;28;19931;-72
2022/07/20 04:04:47;;;;;;;;;;;20.40;93.30;;;;;;5038605;28;19944;-71
2022/07/20 04:07:14;;;;;;;;;;;20.40;93.60;;;;;;5019928;28;20362;-72
2022/07/20 04:09:44;;;;;;;;;;;20.40;93.80;;;;;;5038412;28;19924;-72
2022/07/20 04:12:17;;;;;;;;;;;20.40;93.50;;;;;;5038541;28;19921;-72
2022/07/20 04:14:45;;;;;;;;;;;20.30;93.80;;;;;;5037561;28;19928;-72
2022/07/20 04:17:12;;;;;;;;;;;20.30;93.80;;;;;;5038377;28;19925;-72
2022/07/20 04:19:40;;;;;;;;;;;20.30;94.00;;;;;;5020966;28;19928;-71
2022/07/20 04:22:08;;;;;;;;;;;20.30;94.20;;;;;;5037243;28;19943;-72
2022/07/20 04:24:35;;;;;;;;;;;20.40;93.70;;;;;;5038361;28;19939;-72
2022/07/20 04:27:03;;;;;;;;;;;20.40;93.80;;;;;;5019719;28;20263;-72
2022/07/20 04:29:30;;;;;;;;;;;20.30;93.90;;;;;;5037976;28;19921;-72
2022/07/20 04:31:58;;;;;;;;;;;20.40;93.90;;;;;;5037863;28;19928;-71
2022/07/20 04:34:27;;;;;;;;;;;20.30;94.10;;;;;;5003696;28;19928;-72
2022/07/20 04:36:55;;;;;;;;;;;20.40;94.10;;;;;;5037735;28;19943;-72
2022/07/20 04:39:22;;;;;;;;;;;20.30;93.90;;;;;;5037915;28;19932;-72
2022/07/20 04:41:50;;;;;;;;;;;20.40;93.90;;;;;;5036809;28;19928;-72
2022/07/20 04:44:17;;;;;;;;;;;20.40;93.90;;;;;;5038021;28;19921;-72
2022/07/20 04:46:45;;;;;;;;;;;20.40;93.80;;;;;;5037477;28;19921;-72
2022/07/20 04:49:12;;;;;;;;;;;20.50;93.90;;;;;;5036488;28;19925;-72
2022/07/20 04:51:41;;;;;;;;;;;20.50;93.80;;;;;;5020737;28;19932;-72
2022/07/20 04:54:10;;;;;;;;;;;20.50;93.80;;;;;;5019431;28;20387;-71
2022/07/20 04:56:37;;;;;;;;;;;20.60;93.80;;;;;;5037657;28;19921;-72
2022/07/20 04:59:05;;;;;;;;;;;20.60;93.70;;;;;;5037313;28;19921;-72
2022/07/20 05:01:32;;;;;;;;;;;20.60;93.60;;;;;;5018986;28;19921;-72
2022/07/20 05:04:00;;;;;;;;;;;20.60;93.50;;;;;;5037497;28;19921;-71
2022/07/20 05:06:27;;;;;;;;;;;20.70;93.50;;;;;;5037324;28;20339;-72
2022/07/20 05:08:55;;;;;;;;;;;20.70;93.50;;;;;;5019165;28;19928;-72
2022/07/20 05:11:22;;;;;;;;;;;20.70;93.60;;;;;;5003680;28;19925;-72
2022/07/20 05:13:50;;;;;;;;;;;20.70;93.40;;;;;;5018961;28;19921;-72
2022/07/20 05:16:17;;;;;;;;;;;20.70;93.30;;;;;;5004018;28;19940;-72
2022/07/20 05:18:48;;;;;;;;;;;20.70;93.20;;;;;;5037591;28;19928;-71
2022/07/20 05:21:16;;;;;;;;;;;20.80;93.10;;;;;;5035921;28;19928;-72
2022/07/20 05:23:44;;;;;;;;;;;20.80;93.00;;;;;;5037053;28;19921;-71
2022/07/20 05:26:11;;;;;;;;;;;20.80;93.00;;;;;;5019667;28;19932;-72
2022/07/20 05:28:39;;;;;;;;;;;20.80;93.00;;;;;;5035751;28;19920;-72
2022/07/20 05:31:08;;;;;;;;;;;20.90;92.80;;;;;;5019830;28;19921;-71
2022/07/20 05:33:36;;;;;;;;;;;20.90;92.80;;;;;;5036896;28;19921;-72
2022/07/20 05:36:04;;;;;;;;;;;21.00;92.70;;;;;;5019566;28;19932;-71
2022/07/20 05:38:31;;;;;;;;;;;21.00;92.60;;;;;;5046788;28;20267;-71
2022/07/20 05:41:06;;;;;;;;;;;21.10;92.50;;;;;;5056042;28;19921;-72
2022/07/20 05:43:33;;;;;;;;;;;21.10;92.30;;;;;;5056640;28;19921;-72
2022/07/20 05:46:01;;;;;;;;;;;21.20;92.30;;;;;;5056412;28;19921;-72
2022/07/20 05:48:29;;;;;;;;;;;21.10;92.10;;;;;;5054609;28;19921;-71
2022/07/20 05:50:57;;;;;;;;;;;21.20;92.20;;;;;;5055719;28;19921;-72
2022/07/20 05:53:24;;;;;;;;;;;21.30;92.10;;;;;;5055666;28;19920;-72
2022/07/20 05:55:51;;;;;;;;;;;21.30;92.10;;;;;;5054053;28;19947;-72
2022/07/20 05:58:19;;;;;;;;;;;21.30;92.10;;;;;;5056299;28;19920;-72
2022/07/20 06:00:46;;;;;;;;;;;21.30;92.00;;;;;;5054261;28;19927;-72
2022/07/20 06:03:14;;;;;;;;;;;21.30;92.00;;;;;;5056506;28;19921;-71
2022/07/20 06:05:41;;;;;;;;;;;21.30;92.00;;;;;;5056190;28;19921;-71
2022/07/20 06:08:08;;;;;;;;;;;21.20;92.00;;;;;;5055273;28;19921;-72
2022/07/20 06:10:36;;;;;;;;;;;21.20;92.10;;;;;;5056532;28;19928;-71
2022/07/20 06:13:04;;;;;;;;;;;21.20;92.30;;;;;;5055908;28;19921;-71
2022/07/20 06:15:37;;;;;;;;;;;21.20;92.00;;;;;;5054474;28;19920;-72
2022/07/20 06:18:04;;;;;;;;;;;21.30;92.00;;;;;;5055857;28;19928;-71
2022/07/20 06:20:32;;;;;;;;;;;21.30;92.00;;;;;;5037086;28;20271;-71
2022/07/20 06:23:00;;;;;;;;;;;21.30;92.00;;;;;;5055704;28;19920;-72
2022/07/20 06:25:27;;;;;;;;;;;21.30;92.00;;;;;;5055569;28;19948;-72
2022/07/20 06:27:57;;;;;;;;;;;21.40;91.80;;;;;;5054771;28;20259;-72
2022/07/20 06:30:24;;;;;;;;;;;21.50;91.80;;;;;;5055788;28;19921;-72
2022/07/20 06:32:52;;;;;;;;;;;21.50;91.70;;;;;;5054755;28;19928;-72
2022/07/20 06:35:21;;;;;;;;;;;21.60;91.50;;;;;;5037468;28;19921;-72
2022/07/20 06:37:49;;;;;;;;;;;21.60;91.30;;;;;;5046162;28;19925;-72
2022/07/20 06:40:16;;;;;;;;;;;21.60;91.20;;;;;;5018459;28;20359;-72
2022/07/20 06:42:44;;;;;;;;;;;21.50;91.20;;;;;;5018027;28;19928;-72
2022/07/20 06:45:11;;;;;;;;;;;21.50;91.20;;;;;;5018230;28;19932;-72
2022/07/20 06:47:39;;;;;;;;;;;21.50;91.30;;;;;;5034354;28;19932;-72
2022/07/20 06:50:07;;;;;;;;;;;21.50;91.10;;;;;;5035953;28;19928;-71
2022/07/20 06:52:34;;;;;;;;;;;21.50;91.00;;;;;;5035424;28;19921;-72
2022/07/20 06:55:04;;;;;;;;;;;21.50;90.90;;;;;;5017042;28;19925;-72
2022/07/20 06:57:32;;;;;;;;;;;21.50;90.90;;;;;;5017903;28;20279;-73
2022/07/20 06:59:59;;;;;;;;;;;21.50;91.00;;;;;;5034859;28;19932;-72
2022/07/20 07:02:26;;;;;;;;;;;21.40;91.00;;;;;;5033879;28;19921;-72
2022/07/20 07:04:54;;;;;;;;;;;21.40;91.00;;;;;;5001443;28;19921;-72
2022/07/20 07:07:21;;;;;;;;;;;21.40;91.00;;;;;;5033783;28;19921;-72
2022/07/20 07:09:49;;;;;;;;;;;21.40;91.00;;;;;;5017257;28;19936;-72
2022/07/20 07:12:16;;;;;;;;;;;21.40;91.00;;;;;;5034829;28;19928;-72
2022/07/20 07:14:44;;;;;;;;;;;21.50;91.00;;;;;;5033784;28;19936;-73
2022/07/20 07:17:11;;;;;;;;;;;21.50;90.70;;;;;;5034923;28;19928;-73
2022/07/20 07:19:40;;;;;;;;;;;21.60;90.60;;;;;;5017540;28;19928;-72
2022/07/20 07:22:07;;;;;;;;;;;21.60;90.50;;;;;;5034017;28;19921;-72
2022/07/20 07:24:35;;;;;;;;;;;21.70;90.40;;;;;;5034609;28;19921;-72
2022/07/20 07:27:02;;;;;;;;;;;21.60;90.40;;;;;;5001043;28;19921;-73
2022/07/20 07:29:30;;;;;;;;;;;21.60;90.40;;;;;;5021851;28;19928;-72
2022/07/20 07:32:06;;;;;;;;;;;21.60;90.20;;;;;;5021666;28;19921;-73
2022/07/20 07:34:33;;;;;;;;;;;21.50;90.20;;;;;;5020446;28;20418;-73
2022/07/20 07:37:01;;;;;;;;;;;21.60;90.30;;;;;;5003179;28;19929;-72
2022/07/20 07:39:29;;;;;;;;;;;21.60;90.30;;;;;;5001984;28;19921;-73
2022/07/20 07:41:56;;;;;;;;;;;21.60;90.30;;;;;;5000871;28;19921;-73
2022/07/20 07:44:23;;;;;;;;;;;21.70;90.10;;;;;;5002393;28;19936;-73
2022/07/20 07:46:51;;;;;;;;;;;21.70;90.00;;;;;;4988063;28;20352;-77
2022/07/20 07:49:19;;;;;;;;;;;21.70;89.90;;;;;;5012947;28;20275;-75
2022/07/20 07:51:46;;;;;;;;;;;21.80;89.70;;;;;;4997367;28;19921;-72
2022/07/20 07:54:13;;;;;;;;;;;21.70;89.20;;;;;;5023271;28;19925;-72
2022/07/20 07:56:41;;;;;;;;;;;21.90;89.20;;;;;;5004581;28;19940;-72
2022/07/20 07:59:08;;;;;;;;;;;21.90;88.90;;;;;;5021442;28;19921;-72
2022/07/20 08:01:56;;;;;;;;;;;22.00;87.80;;;;;;5035142;28;20343;-72
2022/07/20 08:04:24;;;;;;;;;;;22.00;88.00;;;;;;5005301;28;19936;-73
2022/07/20 08:06:51;;;;;;;;;;;22.10;88.70;;;;;;5039111;28;19925;-73
2022/07/20 08:09:19;;;;;;;;;;;22.20;87.40;;;;;;5037213;28;19928;-73
2022/07/20 08:11:47;;;;;;;;;;;22.20;87.40;;;;;;5038369;28;20267;-73
2022/07/20 08:14:17;;;;;;;;;;;22.20;87.10;;;;;;5004399;28;19921;-73
2022/07/20 08:16:44;;;;;;;;;;;22.20;86.90;;;;;;5021135;28;19936;-73
2022/07/20 08:19:12;;;;;;;;;;;22.20;86.80;;;;;;5021010;28;19925;-73
2022/07/20 08:21:39;;;;;;;;;;;22.30;86.00;;;;;;5019332;28;19921;-73
2022/07/20 08:24:07;;;;;;;;;;;22.30;86.40;;;;;;5020978;28;20272;-73
2022/07/20 08:26:34;;;;;;;;;;;22.40;86.20;;;;;;5020985;28;20368;-73
2022/07/20 08:29:02;;;;;;;;;;;22.40;86.30;;;;;;5037244;28;19921;-73
2022/07/20 08:31:36;;;;;;;;;;;22.50;85.30;;;;;;5020719;28;19928;-73
2022/07/20 08:34:04;;;;;;;;;;;22.60;85.70;;;;;;5003897;28;19921;-72
2022/07/20 08:36:31;;;;;;;;;;;22.70;85.30;;;;;;5002301;28;19949;-79
2022/07/20 08:38:58;;;;;;;;;;;22.80;85.00;;;;;;5049520;28;20401;-74
2022/07/20 08:41:27;;;;;;;;;;;22.90;85.00;;;;;;5055112;28;19920;-74
2022/07/20 08:43:54;;;;;;;;;;;23.00;84.50;;;;;;5057197;28;19920;-74
2022/07/20 08:46:23;;;;;;;;;;;23.00;84.30;;;;;;5040747;28;20310;-74
2022/07/20 08:48:51;;;;;;;;;;;23.10;83.90;;;;;;5054638;28;19944;-74
2022/07/20 08:51:18;;;;;;;;;;;23.10;84.30;;;;;;5054269;28;19920;-74
2022/07/20 08:53:47;;;;;;;;;;;23.10;83.40;;;;;;5056798;28;19921;-74
2022/07/20 08:56:15;;;;;;;;;;;23.10;81.40;;;;;;5057369;28;19921;-74
2022/07/20 08:58:42;;;;;;;;;;;23.10;81.70;;;;;;5057261;28;19920;-74
2022/07/20 09:01:13;;;;;;;;;;;23.10;82.10;;;;;;5043459;28;19932;-74
2022/07/20 09:03:44;;;;;;;;;;;23.10;81.60;;;;;;5037716;28;19921;-74
2022/07/20 09:06:12;;;;;;;;;;;23.20;81.80;;;;;;5036824;28;19921;-74
2022/07/20 09:09:00;;;;;;;;;;;23.20;81.60;;;;;;5035256;28;19921;-74
2022/07/20 09:11:27;;;;;;;;;;;23.30;80.70;;;;;;5036509;28;19925;-74
2022/07/20 09:13:54;;;;;;;;;;;23.30;80.00;;;;;;5035661;28;20378;-74
2022/07/20 09:16:31;;;;;;;;;;;23.40;79.40;;;;;;5037106;28;19921;-74
2022/07/20 09:18:59;;;;;;;;;;;23.30;78.90;;;;;;5037327;28;19921;-74
2022/07/20 09:21:30;;;;;;;;;;;23.30;79.10;;;;;;5035404;28;20264;-74
2022/07/20 09:24:02;;;;;;;;;;;23.30;79.10;;;;;;5036215;28;19920;-74
2022/07/20 09:26:30;;;;;;;;;;;23.30;79.30;;;;;;5036747;28;20340;-74
2022/07/20 09:28:58;;;;;;;;;;;23.40;79.00;;;;;;5034893;28;19921;-74
2022/07/20 09:31:26;;;;;;;;;;;23.50;78.90;;;;;;5037038;28;19921;-74
2022/07/20 09:33:55;;;;;;;;;;;23.50;78.50;;;;;;5034993;28;19921;-73
2022/07/20 09:36:40;;;;;;;;;;;23.60;77.40;;;;;;5036049;28;19933;-76
2022/07/20 09:39:09;;;;;;;;;;;23.70;77.90;;;;;;5035540;28;19921;-72
2022/07/20 09:41:39;;;;;;;;;;;23.80;77.30;;;;;;5035340;28;19921;-73
2022/07/20 09:44:07;;;;;;;;;;;23.80;77.60;;;;;;5036399;28;19933;-73
2022/07/20 09:46:36;;;;;;;;;;;23.80;77.40;;;;;;5035389;28;20245;-72
2022/07/20 09:49:07;;;;;;;;;;;23.80;77.70;;;;;;5034140;28;19935;-73
2022/07/20 09:51:44;;;;;;;;;;;24.00;77.60;;;;;;5035020;28;19921;-72
2022/07/20 09:54:12;;;;;;;;;;;24.00;76.90;;;;;;5035093;28;19928;-74
2022/07/20 09:56:41;;;;;;;;;;;23.90;76.00;;;;;;5035338;28;20240;-74
2022/07/20 09:59:10;;;;;;;;;;;23.90;75.70;;;;;;5035953;28;19920;-73
2022/07/20 10:01:58;;;;;;;;;;;23.90;76.40;;;;;;5034903;28;19921;-73
2022/07/20 10:04:26;;;;;;;;;;;24.00;76.00;;;;;;5035052;28;20279;-73
2022/07/20 10:06:54;;;;;;;;;;;24.00;76.10;;;;;;5035093;28;20348;-72
2022/07/20 10:09:22;;;;;;;;;;;24.10;75.30;;;;;;5034620;28;19921;-72
2022/07/20 10:11:49;;;;;;;;;;;24.20;73.90;;;;;;5035797;28;19924;-74
2022/07/20 10:14:21;;;;;;;;;;;24.30;73.60;;;;;;5033831;28;19921;-74
2022/07/20 10:16:50;;;;;;;;;;;24.40;73.50;;;;;;5034874;28;20391;-73
2022/07/20 10:19:21;;;;;;;;;;;24.60;73.30;;;;;;5035720;28;20287;-74
2022/07/20 10:21:49;;;;;;;;;;;24.70;72.80;;;;;;5027437;28;20256;-72
2022/07/20 10:24:18;;;;;;;;;;;24.80;72.30;;;;;;5055452;28;19921;-75
2022/07/20 10:26:46;;;;;;;;;;;24.90;72.20;;;;;;5054600;28;19920;-73
2022/07/20 10:29:25;;;;;;;;;;;25.00;72.10;;;;;;5054254;28;19921;-73
2022/07/20 10:31:54;;;;;;;;;;;25.10;72.30;;;;;;5038054;28;20352;-73
2022/07/20 10:34:41;;;;;;;;;;;25.10;73.20;;;;;;5053938;28;19928;-73
2022/07/20 10:37:27;;;;;;;;;;;25.20;72.40;;;;;;5035981;28;19921;-73
2022/07/20 10:39:57;;;;;;;;;;;25.20;72.30;;;;;;5035317;28;19925;-72
2022/07/20 10:42:28;;;;;;;;;;;25.30;72.60;;;;;;5000940;28;20283;-73
2022/07/20 10:45:22;;;;;;;;;;;25.30;71.40;;;;;;5002174;28;19925;-73
2022/07/20 10:47:50;;;;;;;;;;;25.40;71.10;;;;;;5016831;28;19921;-73
2022/07/20 10:50:19;;;;;;;;;;;25.50;70.40;;;;;;5018263;28;19921;-73
2022/07/20 10:52:56;;;;;;;;;;;25.50;70.90;;;;;;5018140;28;19951;-73
2022/07/20 10:55:35;;;;;;;;;;;25.60;69.60;;;;;;5034295;28;19930;-74
2022/07/20 10:58:04;;;;;;;;;;;25.60;69.90;;;;;;5035932;28;19921;-74
2022/07/20 11:00:36;;;;;;;;;;;25.70;70.40;;;;;;5016338;28;19920;-74
2022/07/20 11:03:04;;;;;;;;;;;25.80;69.40;;;;;;5018259;28;19932;-74
2022/07/20 11:05:32;;;;;;;;;;;25.90;70.00;;;;;;5035767;28;19921;-75
2022/07/20 11:08:03;;;;;;;;;;;25.90;69.60;;;;;;5016598;28;19921;-74
2022/07/20 11:10:31;;;;;;;;;;;26.00;69.80;;;;;;5018143;28;19921;-74
2022/07/20 11:13:03;;;;;;;;;;;26.10;69.90;;;;;;5018224;28;19925;-74
2022/07/20 11:15:37;;;;;;;;;;;26.10;69.80;;;;;;5034233;28;19921;-74
2022/07/20 11:18:09;;;;;;;;;;;26.20;70.80;;;;;;5035346;28;19921;-74
2022/07/20 11:20:44;;;;;;;;;;;26.30;70.70;;;;;;5017634;28;19928;-74
2022/07/20 11:23:13;;;;;;;;;;;26.30;70.30;;;;;;5035224;28;20348;-76
2022/07/20 11:25:45;;;;;;;;;;;26.20;70.80;;;;;;5035172;28;19921;-74
2022/07/20 11:28:13;;;;;;;;;;;26.00;71.50;;;;;;5034004;28;19921;-74
2022/07/20 11:30:42;;;;;;;;;;;25.90;72.10;;;;;;5034859;28;19928;-74
2022/07/20 11:33:10;;;;;;;;;;;25.90;72.50;;;;;;5017515;28;19921;-74
2022/07/20 11:35:41;;;;;;;;;;;25.70;72.10;;;;;;5033369;28;19968;-72
2022/07/20 11:38:08;;;;;;;;;;;25.70;72.30;;;;;;5034431;28;19936;-75
2022/07/20 11:40:36;;;;;;;;;;;25.70;73.30;;;;;;5033556;28;19932;-72
2022/07/20 11:43:11;;;;;;;;;;;25.70;72.80;;;;;;5001189;28;19932;-75
2022/07/20 11:45:38;;;;;;;;;;;25.80;73.40;;;;;;5017615;28;20252;-74
2022/07/20 11:48:16;;;;;;;;;;;25.90;72.80;;;;;;5016088;28;19925;-72
2022/07/20 11:51:04;;;;;;;;;;;26.00;72.20;;;;;;5016906;28;20352;-74
2022/07/20 11:53:34;;;;;;;;;;;26.10;71.80;;;;;;4984970;28;19932;-74
2022/07/20 11:56:03;;;;;;;;;;;26.20;72.60;;;;;;5016306;28;19943;-72
2022/07/20 11:58:32;;;;;;;;;;;26.30;70.90;;;;;;5034420;28;19928;-74
2022/07/20 12:01:00;;;;;;;;;;;26.30;70.40;;;;;;4999896;28;19932;-73
2022/07/20 12:03:31;;;;;;;;;;;26.30;70.50;;;;;;5017189;28;19928;-72
2022/07/20 12:06:00;;;;;;;;;;;26.40;70.00;;;;;;5034195;28;19951;-74
2022/07/20 12:08:27;;;;;;;;;;;26.40;69.90;;;;;;5033307;28;19921;-74
2022/07/20 12:10:55;;;;;;;;;;;26.50;69.30;;;;;;5034242;28;19921;-73
2022/07/20 12:13:23;;;;;;;;;;;26.50;68.90;;;;;;5035804;28;19921;-73
2022/07/20 12:15:51;;;;;;;;;;;26.40;69.40;;;;;;5036982;28;19921;-73
2022/07/20 12:18:37;;;;;;;;;;;26.40;70.00;;;;;;5037869;28;20355;-74
2022/07/20 12:21:07;;;;;;;;;;;26.50;70.00;;;;;;5036727;28;19920;-71
2022/07/20 12:23:35;;;;;;;;;;;26.60;69.10;;;;;;5037988;28;19928;-72
2022/07/20 12:26:19;;;;;;;;;;;26.80;69.10;;;;;;5037778;28;20275;-73
2022/07/20 12:28:47;;;;;;;;;;;26.80;68.70;;;;;;5036784;28;19928;-73
2022/07/20 12:31:24;;;;;;;;;;;26.90;68.90;;;;;;5037651;28;20263;-71
2022/07/20 12:34:01;;;;;;;;;;;26.90;68.20;;;;;;5019499;28;19936;-73
2022/07/20 12:36:32;;;;;;;;;;;26.80;68.70;;;;;;5037740;28;19921;-69
2022/07/20 12:39:00;;;;;;;;;;;26.80;68.40;;;;;;5037527;28;19921;-73
2022/07/20 12:41:28;;;;;;;;;;;26.90;67.90;;;;;;5019320;28;19921;-73
2022/07/20 12:44:28;;;;;;;;;;;27.00;68.10;;;;;;5006845;28;19928;-75
2022/07/20 12:46:56;;;;;;;;;;;27.20;68.20;;;;;;5003787;28;20287;-74
2022/07/20 12:49:25;;;;;;;;;;;27.30;67.70;;;;;;5037057;28;19921;-74
2022/07/20 12:51:54;;;;;;;;;;;27.40;67.30;;;;;;5019606;28;20272;-73
2022/07/20 12:54:23;;;;;;;;;;;27.50;67.30;;;;;;5019147;28;19921;-75
2022/07/20 12:57:10;;;;;;;;;;;27.60;67.10;;;;;;5020885;28;19921;-75
2022/07/20 12:59:38;;;;;;;;;;;27.60;67.10;;;;;;5037471;28;19921;-74
2022/07/20 13:02:07;;;;;;;;;;;27.70;66.50;;;;;;5019091;28;19921;-74
2022/07/20 13:04:35;;;;;;;;;;;27.70;66.50;;;;;;5037220;28;20051;-72
2022/07/20 13:07:03;;;;;;;;;;;27.80;67.20;;;;;;5036434;28;19921;-73
2022/07/20 13:09:34;;;;;;;;;;;27.90;66.80;;;;;;5035910;28;19921;-75
2022/07/20 13:12:01;;;;;;;;;;;27.90;66.70;;;;;;5037762;28;19921;-72
2022/07/20 13:14:29;;;;;;;;;;;28.00;65.60;;;;;;5018014;28;19921;-73
2022/07/20 13:16:56;;;;;;;;;;;28.00;65.20;;;;;;5019854;28;19944;-72
2022/07/20 13:19:24;;;;;;;;;;;28.00;65.30;;;;;;5019911;28;19921;-75
2022/07/20 13:21:51;;;;;;;;;;;27.90;65.50;;;;;;5036491;28;19921;-74
2022/07/20 13:24:19;;;;;;;;;;;27.90;65.90;;;;;;5019998;28;19921;-73
2022/07/20 13:26:46;;;;;;;;;;;27.90;65.80;;;;;;5015143;28;19951;-71
2022/07/20 13:29:14;;;;;;;;;;;27.90;65.90;;;;;;5036094;28;19921;-73
2022/07/20 13:31:41;;;;;;;;;;;27.90;65.90;;;;;;5037161;28;19921;-74
2022/07/20 13:34:18;;;;;;;;;;;27.90;65.30;;;;;;5036258;28;19921;-74
2022/07/20 13:36:45;;;;;;;;;;;28.00;65.40;;;;;;5003599;28;19928;-74
2022/07/20 13:39:12;;;;;;;;;;;28.10;65.50;;;;;;5036536;28;19921;-72
2022/07/20 13:41:40;;;;;;;;;;;28.10;65.80;;;;;;5019759;28;19921;-72
2022/07/20 13:44:08;;;;;;;;;;;28.10;65.70;;;;;;5016850;28;19922;-72
2022/07/20 13:46:36;;;;;;;;;;;28.00;66.20;;;;;;5026169;28;19928;-72
2022/07/20 13:49:03;;;;;;;;;;;28.00;66.60;;;;;;5022540;28;19928;-75
2022/07/20 13:51:31;;;;;;;;;;;28.00;66.70;;;;;;4999411;28;19921;-73
2022/07/20 13:54:19;;;;;;;;;;;27.90;66.30;;;;;;5015460;28;19928;-74
2022/07/20 13:56:46;;;;;;;;;;;28.00;66.40;;;;;;5016745;28;19937;-74
2022/07/20 13:59:14;;;;;;;;;;;28.10;65.90;;;;;;4982968;28;19922;-74
2022/07/20 14:01:44;;;;;;;;;;;28.20;65.80;;;;;;5015413;28;19928;-75
2022/07/20 14:04:13;;;;;;;;;;;28.40;66.60;;;;;;4999006;28;19932;-72
2022/07/20 14:06:41;;;;;;;;;;;28.60;65.20;;;;;;5016282;28;19921;-72
2022/07/20 14:09:09;;;;;;;;;;;28.80;64.50;;;;;;5015239;28;20017;-72
2022/07/20 14:11:37;;;;;;;;;;;28.80;64.50;;;;;;5019007;28;19932;-74
2022/07/20 14:14:06;;;;;;;;;;;28.80;64.70;;;;;;5013701;28;19923;-74
2022/07/20 14:16:34;;;;;;;;;;;28.70;64.20;;;;;;4998172;28;19940;-75
2022/07/20 14:19:02;;;;;;;;;;;28.70;64.90;;;;;;4998750;28;20276;-74
2022/07/20 14:21:30;;;;;;;;;;;28.60;64.60;;;;;;5014890;28;19921;-74
2022/07/20 14:23:57;;;;;;;;;;;28.50;63.60;;;;;;5015757;28;19922;-74
2022/07/20 14:26:24;;;;;;;;;;;28.30;64.00;;;;;;4999299;28;20328;-74
2022/07/20 14:28:52;;;;;;;;;;;28.30;64.70;;;;;;4997963;28;20340;-74